Time;durP1;ratioP1;P1;durP2;ratioP2;P2;SDS_P1;SDS_P2;PMS_P1;PMS_P2;Temp;Humidity;BMP_temperature;BMP_pressure;BME280_temperature;BME280_humidity;BME280_pressure;Samples;Min_cycle;Max_cycle;Signal;HPM_P1;HPM_P2
2024/01/30 00:01:06;;;;;;;1999.90;999.90;;;11.80;99.90;;;;;;5075087;28;20032;-70
2024/01/30 00:03:31;;;;;;;1999.90;999.90;;;11.80;99.90;;;;;;5075988;28;20020;-70
2024/01/30 00:05:57;;;;;;;1999.90;999.90;;;11.90;99.90;;;;;;5076249;28;20384;-70
2024/01/30 00:08:22;;;;;;;1999.90;999.90;;;11.90;99.90;;;;;;5076028;28;20399;-77
2024/01/30 00:10:48;;;;;;;1999.90;999.90;;;11.90;99.90;;;;;;5075938;28;20096;-70
2024/01/30 00:13:16;;;;;;;1999.90;999.90;;;11.80;99.90;;;;;;5076226;28;20516;-70
2024/01/30 00:15:41;;;;;;;1999.90;999.90;;;11.80;99.90;;;;;;5076269;28;20082;-82
2024/01/30 00:18:07;;;;;;;1999.90;999.90;;;11.80;99.90;;;;;;5075906;28;20029;-81
2024/01/30 00:20:33;;;;;;;1999.90;999.90;;;11.80;99.90;;;;;;5076020;28;20089;-70
2024/01/30 00:22:58;;;;;;;1999.90;999.90;;;11.70;99.90;;;;;;5075809;28;20486;-82
2024/01/30 00:25:24;;;;;;;1999.90;999.90;;;11.80;99.90;;;;;;5075936;28;20017;-70
2024/01/30 00:27:50;;;;;;;1999.90;999.90;;;11.80;99.90;;;;;;5075837;28;20143;-70
2024/01/30 00:30:15;;;;;;;1999.90;999.90;;;11.90;99.90;;;;;;5076052;28;20410;-82
2024/01/30 00:32:41;;;;;;;1999.90;999.90;;;11.90;99.90;;;;;;5075644;28;20043;-82
2024/01/30 00:35:07;;;;;;;1999.90;999.90;;;11.90;99.90;;;;;;5075636;28;20024;-80
2024/01/30 00:37:32;;;;;;;1999.90;999.90;;;11.90;99.90;;;;;;5075538;28;20029;-82
2024/01/30 00:39:58;;;;;;;1999.90;999.90;;;11.90;99.90;;;;;;5075800;28;20031;-82
2024/01/30 00:42:23;;;;;;;1999.90;999.90;;;11.90;99.90;;;;;;5075292;28;20061;-70
2024/01/30 00:44:49;;;;;;;1999.90;999.90;;;11.90;99.90;;;;;;5075393;28;20044;-82
2024/01/30 00:47:15;;;;;;;1999.90;999.90;;;11.80;99.90;;;;;;5075571;28;20031;-82
2024/01/30 00:49:41;;;;;;;1999.90;999.90;;;11.80;99.90;;;;;;5075332;28;20100;-70
2024/01/30 00:52:06;;;;;;;1999.90;999.90;;;11.80;99.90;;;;;;5075518;28;20451;-70
2024/01/30 00:54:32;;;;;;;1999.90;999.90;;;11.80;99.90;;;;;;5075192;28;20422;-70
2024/01/30 00:56:58;;;;;;;1999.90;999.90;;;11.70;99.90;;;;;;5073969;28;20021;-82
2024/01/30 00:59:23;;;;;;;1999.90;999.90;;;11.70;99.90;;;;;;5075452;28;20131;-70
2024/01/30 01:01:49;;;;;;;1999.90;999.90;;;11.70;99.90;;;;;;5074197;28;20020;-70
2024/01/30 01:04:15;;;;;;;1999.90;999.90;;;11.70;99.90;;;;;;5075173;28;20035;-80
2024/01/30 01:06:43;;;;;;;1999.90;999.90;;;11.70;99.90;;;;;;5074841;28;20527;-70
2024/01/30 01:09:11;;;;;;;1999.90;999.90;;;11.60;99.90;;;;;;5074954;28;20009;-82
2024/01/30 01:11:37;;;;;;;1999.90;999.90;;;11.60;99.90;;;;;;5075014;28;20052;-70
2024/01/30 01:14:03;;;;;;;1999.90;999.90;;;11.60;99.90;;;;;;5075000;28;20025;-82
2024/01/30 01:16:29;;;;;;;1999.90;999.90;;;11.60;99.90;;;;;;5074961;28;20391;-70
2024/01/30 01:18:55;;;;;;;1999.90;999.90;;;11.60;99.90;;;;;;5075308;28;20099;-70
2024/01/30 01:21:20;;;;;;;1999.90;999.90;;;11.50;99.90;;;;;;5074981;28;20033;-82
2024/01/30 01:23:46;;;;;;;1999.90;999.90;;;11.50;99.90;;;;;;5074894;28;20041;-70
2024/01/30 01:26:11;;;;;;;1999.90;999.90;;;11.40;99.90;;;;;;5074636;28;20033;-70
2024/01/30 01:28:39;;;;;;;1999.90;999.90;;;11.50;99.90;;;;;;5074386;28;20475;-82
2024/01/30 01:31:05;;;;;;;1999.90;999.90;;;11.40;99.90;;;;;;5074936;28;20017;-70
2024/01/30 01:33:33;;;;;;;1999.90;999.90;;;11.40;99.90;;;;;;5074635;28;20044;-70
2024/01/30 01:36:02;;;;;;;1999.90;999.90;;;11.40;99.90;;;;;;5074466;28;20056;-82
2024/01/30 01:38:28;;;;;;;1999.90;999.90;;;11.40;99.90;;;;;;5074359;28;20021;-82
2024/01/30 01:40:54;;;;;;;1999.90;999.90;;;11.40;99.90;;;;;;5074235;28;20025;-82
2024/01/30 01:43:19;;;;;;;1999.90;999.90;;;11.40;99.90;;;;;;5074631;28;20031;-70
2024/01/30 01:45:45;;;;;;;1999.90;999.90;;;11.40;99.90;;;;;;5074358;28;20479;-70
2024/01/30 01:48:12;;;;;;;1999.90;999.90;;;11.50;99.90;;;;;;5074479;28;20488;-82
2024/01/30 01:50:38;;;;;;;1999.90;999.90;;;11.50;99.90;;;;;;5074161;28;20034;-69
2024/01/30 01:53:07;;;;;;;1999.90;999.90;;;11.50;99.90;;;;;;5056298;28;20512;-69
2024/01/30 01:55:34;;;;;;;1999.90;999.90;;;11.40;99.90;;;;;;5073934;28;20025;-82
2024/01/30 01:58:00;;;;;;;1999.90;999.90;;;11.40;99.90;;;;;;5074072;28;20028;-82
2024/01/30 02:00:26;;;;;;;1999.90;999.90;;;11.40;99.90;;;;;;5073896;28;20023;-82
2024/01/30 02:02:54;;;;;;;1999.90;999.90;;;11.50;99.90;;;;;;5073849;28;20032;-82
2024/01/30 02:05:20;;;;;;;1999.90;999.90;;;11.50;99.90;;;;;;5073830;28;20037;-70
2024/01/30 02:07:46;;;;;;;1999.90;999.90;;;11.60;99.90;;;;;;5073561;28;20101;-83
2024/01/30 02:10:12;;;;;;;1999.90;999.90;;;11.50;99.90;;;;;;5073917;28;20483;-70
2024/01/30 02:12:38;;;;;;;1999.90;999.90;;;11.50;99.90;;;;;;5073595;28;20085;-70
2024/01/30 02:15:05;;;;;;;1999.90;999.90;;;11.50;99.90;;;;;;5074188;28;20028;-69
2024/01/30 02:17:30;;;;;;;1999.90;999.90;;;11.50;99.90;;;;;;5073635;28;20059;-82
2024/01/30 02:19:56;;;;;;;1999.90;999.90;;;11.40;99.90;;;;;;5073961;28;20060;-82
2024/01/30 02:22:23;;;;;;;1999.90;999.90;;;11.40;99.90;;;;;;5073517;28;20024;-70
2024/01/30 02:24:49;;;;;;;1999.90;999.90;;;11.40;99.90;;;;;;5073675;28;20024;-81
2024/01/30 02:27:15;;;;;;;1999.90;999.90;;;11.40;99.90;;;;;;5073534;28;20032;-82
2024/01/30 02:29:41;;;;;;;1999.90;999.90;;;11.40;99.90;;;;;;5073531;28;20024;-70
2024/01/30 02:32:07;;;;;;;1999.90;999.90;;;11.40;99.90;;;;;;5073352;28;20048;-82
2024/01/30 02:34:33;;;;;;;1999.90;999.90;;;11.40;99.90;;;;;;5073141;28;20035;-81
2024/01/30 02:36:59;;;;;;;1999.90;999.90;;;11.30;99.90;;;;;;5073166;28;20024;-70
2024/01/30 02:39:24;;;;;;;1999.90;999.90;;;11.30;99.90;;;;;;5073361;28;20124;-70
2024/01/30 02:41:50;;;;;;;1999.90;999.90;;;11.20;99.90;;;;;;5072986;28;20510;-70
2024/01/30 02:44:18;;;;;;;1999.90;999.90;;;11.20;99.90;;;;;;5073109;28;20041;-69
2024/01/30 02:46:44;;;;;;;1999.90;999.90;;;11.20;99.90;;;;;;5073279;28;20025;-70
2024/01/30 02:49:10;;;;;;;1999.90;999.90;;;11.10;99.90;;;;;;5073006;28;20047;-81
2024/01/30 02:51:35;;;;;;;1999.90;999.90;;;11.10;99.90;;;;;;5073114;28;20021;-82
2024/01/30 02:54:01;;;;;;;1999.90;999.90;;;11.20;99.90;;;;;;5072835;28;20036;-70
2024/01/30 02:56:26;;;;;;;1999.90;999.90;;;11.30;99.90;;;;;;5073070;28;20082;-82
2024/01/30 02:58:52;;;;;;;1999.90;999.90;;;11.30;99.90;;;;;;5073296;28;20102;-70
2024/01/30 03:01:18;;;;;;;1999.90;999.90;;;11.20;99.90;;;;;;5072706;28;20070;-82
2024/01/30 03:03:43;;;;;;;1999.90;999.90;;;11.20;99.90;;;;;;5072741;28;20029;-82
2024/01/30 03:06:09;;;;;;;1999.90;999.90;;;11.20;99.90;;;;;;5071949;28;20076;-70
2024/01/30 03:08:35;;;;;;;1999.90;999.90;;;11.20;99.90;;;;;;5072715;28;20371;-82
2024/01/30 03:11:01;;;;;;;1999.90;999.90;;;11.20;99.90;;;;;;5073050;28;20024;-81
2024/01/30 03:13:27;;;;;;;1999.90;999.90;;;11.20;99.90;;;;;;5072874;28;20059;-70
2024/01/30 03:15:52;;;;;;;1999.90;999.90;;;11.20;99.90;;;;;;5073070;28;20061;-70
2024/01/30 03:18:18;;;;;;;1999.90;999.90;;;11.20;99.90;;;;;;5072814;28;20056;-70
2024/01/30 03:20:43;;;;;;;1999.90;999.90;;;11.20;99.90;;;;;;5072062;28;20067;-69
2024/01/30 03:23:09;;;;;;;1999.90;999.90;;;11.30;99.90;;;;;;5072509;28;20394;-81
2024/01/30 03:25:35;;;;;;;1999.90;999.90;;;11.30;99.90;;;;;;5073110;28;20063;-82
2024/01/30 03:28:01;;;;;;;1999.90;999.90;;;11.30;99.90;;;;;;5072581;28;20032;-70
2024/01/30 03:30:26;;;;;;;1999.90;999.90;;;11.20;99.90;;;;;;5072656;28;20395;-70
2024/01/30 03:32:52;;;;;;;1999.90;999.90;;;11.20;99.90;;;;;;5072580;28;20032;-69
2024/01/30 03:35:19;;;;;;;1999.90;999.90;;;11.20;99.90;;;;;;5072675;28;20059;-72
2024/01/30 03:37:44;;;;;;;1999.90;999.90;;;11.10;99.90;;;;;;5072638;28;20029;-82
2024/01/30 03:40:10;;;;;;;1999.90;999.90;;;11.20;99.90;;;;;;5072724;28;20029;-81
2024/01/30 03:42:36;;;;;;;1999.90;999.90;;;11.20;99.90;;;;;;5072097;28;20035;-69
2024/01/30 03:45:02;;;;;;;1999.90;999.90;;;11.20;99.90;;;;;;5072564;28;20095;-70
2024/01/30 03:47:28;;;;;;;1999.90;999.90;;;11.20;99.90;;;;;;5072454;28;20032;-69
2024/01/30 03:49:53;;;;;;;1999.90;999.90;;;11.20;99.90;;;;;;5072386;28;20058;-69
2024/01/30 03:52:19;;;;;;;1999.90;999.90;;;11.20;99.90;;;;;;5072678;28;20025;-81
2024/01/30 03:54:44;;;;;;;1999.90;999.90;;;11.30;99.90;;;;;;5072095;28;20364;-69
2024/01/30 03:57:10;;;;;;;1999.90;999.90;;;11.30;99.90;;;;;;5071409;28;20031;-81
2024/01/30 03:59:36;;;;;;;1999.90;999.90;;;11.30;99.90;;;;;;5072415;28;20016;-82
2024/01/30 04:02:02;;;;;;;1999.90;999.90;;;11.30;99.90;;;;;;5072241;28;20028;-82
2024/01/30 04:04:28;;;;;;;1999.90;999.90;;;11.20;99.90;;;;;;5071831;28;20020;-70
2024/01/30 04:06:53;;;;;;;1999.90;999.90;;;11.10;99.90;;;;;;5071925;28;20060;-82
2024/01/30 04:09:19;;;;;;;1999.90;999.90;;;11.20;99.90;;;;;;5072383;28;20471;-70
2024/01/30 04:11:45;;;;;;;1999.90;999.90;;;11.20;99.90;;;;;;5072130;28;20029;-69
2024/01/30 04:14:10;;;;;;;1999.90;999.90;;;11.20;99.90;;;;;;5071791;28;20028;-70
2024/01/30 04:16:36;;;;;;;1999.90;999.90;;;11.10;99.90;;;;;;5071659;28;20033;-81
2024/01/30 04:19:03;;;;;;;1999.90;999.90;;;11.00;99.90;;;;;;5072254;28;20050;-70
2024/01/30 04:21:29;;;;;;;1999.90;999.90;;;10.90;99.90;;;;;;5072133;28;20450;-82
2024/01/30 04:23:54;;;;;;;1999.90;999.90;;;11.00;99.90;;;;;;5071935;28;20526;-69
2024/01/30 04:26:20;;;;;;;1999.90;999.90;;;11.00;99.90;;;;;;5072320;28;20028;-82
2024/01/30 04:28:46;;;;;;;1999.90;999.90;;;10.90;99.90;;;;;;5071859;28;20557;-82
2024/01/30 04:31:11;;;;;;;1999.90;999.90;;;10.90;99.90;;;;;;5073192;28;20024;-82
2024/01/30 04:33:37;;;;;;;1999.90;999.90;;;10.80;99.90;;;;;;5075505;28;20112;-82
2024/01/30 04:36:08;;;;;;;1999.90;999.90;;;10.70;99.90;;;;;;5075745;28;20024;-82
2024/01/30 04:38:34;;;;;;;1999.90;999.90;;;10.70;99.90;;;;;;5074860;28;20526;-81
2024/01/30 04:41:00;;;;;;;1999.90;999.90;;;10.70;99.90;;;;;;5075550;28;20028;-69
2024/01/30 04:43:26;;;;;;;1999.90;999.90;;;10.70;99.90;;;;;;5075721;28;20079;-69
2024/01/30 04:45:51;;;;;;;1999.90;999.90;;;10.70;99.90;;;;;;5075526;28;20025;-69
2024/01/30 04:48:17;;;;;;;1999.90;999.90;;;10.70;99.90;;;;;;5057559;28;20426;-82
2024/01/30 04:50:43;;;;;;;1999.90;999.90;;;10.70;99.90;;;;;;5075189;28;20031;-82
2024/01/30 04:53:08;;;;;;;1999.90;999.90;;;10.70;99.90;;;;;;5075701;28;20033;-82
2024/01/30 04:55:35;;;;;;;1999.90;999.90;;;10.80;99.90;;;;;;5075284;28;20504;-82
2024/01/30 04:58:01;;;;;;;1999.90;999.90;;;10.80;99.90;;;;;;5075298;28;20498;-82
2024/01/30 05:00:26;;;;;;;1999.90;999.90;;;10.70;99.90;;;;;;5074912;28;20017;-81
2024/01/30 05:02:52;;;;;;;1999.90;999.90;;;10.70;99.90;;;;;;5074855;28;20044;-82
2024/01/30 05:05:18;;;;;;;1999.90;999.90;;;10.70;99.90;;;;;;5075028;28;20110;-82
2024/01/30 05:07:43;;;;;;;1999.90;999.90;;;10.70;99.90;;;;;;5075465;28;20560;-82
2024/01/30 05:10:09;;;;;;;1999.90;999.90;;;10.70;99.90;;;;;;5074993;28;20418;-69
2024/01/30 05:12:35;;;;;;;1999.90;999.90;;;10.70;99.90;;;;;;5074961;28;20514;-81
2024/01/30 05:15:00;;;;;;;1999.90;999.90;;;10.70;99.90;;;;;;5074809;28;20028;-69
2024/01/30 05:17:26;;;;;;;1999.90;999.90;;;10.70;99.90;;;;;;5074896;28;20016;-70
2024/01/30 05:19:51;;;;;;;1999.90;999.90;;;10.70;99.90;;;;;;5075168;28;20060;-69
2024/01/30 05:22:18;;;;;;;1999.90;999.90;;;10.70;99.90;;;;;;5074717;28;20017;-82
2024/01/30 05:24:44;;;;;;;1999.90;999.90;;;10.70;99.90;;;;;;5075014;28;20070;-82
2024/01/30 05:27:10;;;;;;;1999.90;999.90;;;10.70;99.90;;;;;;5074710;28;20028;-69
2024/01/30 05:29:36;;;;;;;1999.90;999.90;;;10.70;99.90;;;;;;5073782;28;20089;-82
2024/01/30 05:32:02;;;;;;;1999.90;999.90;;;10.60;99.90;;;;;;5074951;28;20016;-82
2024/01/30 05:34:28;;;;;;;1999.90;999.90;;;10.50;99.90;;;;;;5074005;28;20057;-82
2024/01/30 05:36:54;;;;;;;1999.90;999.90;;;10.50;99.90;;;;;;5074729;28;20028;-82
2024/01/30 05:39:19;;;;;;;1999.90;999.90;;;10.60;99.90;;;;;;5056690;28;20062;-69
2024/01/30 05:41:45;;;;;;;1999.90;999.90;;;10.50;99.90;;;;;;5074735;28;20021;-82
2024/01/30 05:44:11;;;;;;;1999.90;999.90;;;10.60;99.90;;;;;;5073727;28;20032;-82
2024/01/30 05:46:36;;;;;;;1999.90;999.90;;;10.50;99.90;;;;;;5074340;28;20059;-81
2024/01/30 05:49:02;;;;;;;1999.90;999.90;;;10.40;99.90;;;;;;5074475;28;20029;-82
2024/01/30 05:51:28;;;;;;;1999.90;999.90;;;10.40;99.90;;;;;;5074516;28;20107;-82
2024/01/30 05:53:54;;;;;;;1999.90;999.90;;;10.40;99.90;;;;;;5074577;28;20032;-69
2024/01/30 05:56:19;;;;;;;1999.90;999.90;;;10.30;99.90;;;;;;5073938;28;20024;-82
2024/01/30 05:58:45;;;;;;;1999.90;999.90;;;10.40;99.90;;;;;;5078634;28;20108;-82
2024/01/30 06:01:11;;;;;;;1999.90;999.90;;;10.40;99.90;;;;;;5073501;28;20028;-82
2024/01/30 06:03:37;;;;;;;1999.90;999.90;;;10.50;99.90;;;;;;5073870;28;20074;-69
2024/01/30 06:06:02;;;;;;;1999.90;999.90;;;10.60;99.90;;;;;;5073530;28;20045;-70
2024/01/30 06:08:28;;;;;;;1999.90;999.90;;;10.70;99.90;;;;;;5073568;28;20029;-82
2024/01/30 06:10:54;;;;;;;1999.90;999.90;;;10.80;99.90;;;;;;5073654;28;20043;-69
2024/01/30 06:13:19;;;;;;;1999.90;999.90;;;10.90;99.90;;;;;;5073738;28;20463;-83
2024/01/30 06:15:45;;;;;;;1999.90;999.90;;;10.80;99.90;;;;;;5073815;28;20054;-69
2024/01/30 06:18:11;;;;;;;1999.90;999.90;;;10.70;99.90;;;;;;5073829;28;20404;-81
2024/01/30 06:20:36;;;;;;;1999.90;999.90;;;10.70;99.90;;;;;;5073425;28;20077;-82
2024/01/30 06:23:02;;;;;;;1999.90;999.90;;;10.70;99.90;;;;;;5073757;28;20020;-83
2024/01/30 06:25:28;;;;;;;1999.90;999.90;;;10.60;99.90;;;;;;5073362;28;20016;-69
2024/01/30 06:27:54;;;;;;;1999.90;999.90;;;10.60;99.90;;;;;;5076151;28;20140;-82
2024/01/30 06:30:19;;;;;;;1999.90;999.90;;;10.60;99.90;;;;;;5092287;28;20023;-72
2024/01/30 06:32:45;;;;;;;1999.90;999.90;;;10.60;99.90;;;;;;5071333;28;20498;-69
2024/01/30 06:35:11;;;;;;;1999.90;999.90;;;10.60;99.90;;;;;;5069292;28;20063;-71
2024/01/30 06:37:37;;;;;;;1999.90;999.90;;;10.70;99.90;;;;;;5071185;28;20064;-70
2024/01/30 06:40:04;;;;;;;1999.90;999.90;;;10.70;99.90;;;;;;5079123;28;20020;-82
2024/01/30 06:42:30;;;;;;;1999.90;999.90;;;10.80;99.90;;;;;;5071675;28;20025;-82
2024/01/30 06:44:56;;;;;;;1999.90;999.90;;;10.70;99.90;;;;;;5072147;28;20103;-81
2024/01/30 06:47:21;;;;;;;1999.90;999.90;;;10.70;99.90;;;;;;5071983;28;20495;-69
2024/01/30 06:49:47;;;;;;;1999.90;999.90;;;10.70;99.90;;;;;;5081420;28;20107;-82
2024/01/30 06:52:14;;;;;;;1999.90;999.90;;;10.70;99.90;;;;;;5078368;28;20048;-69
2024/01/30 06:54:39;;;;;;;1999.90;999.90;;;10.70;99.90;;;;;;5072458;28;20090;-69
2024/01/30 06:57:08;;;;;;;1999.90;999.90;;;10.70;99.90;;;;;;5071591;28;20028;-79
2024/01/30 06:59:34;;;;;;;1999.90;999.90;;;10.60;99.90;;;;;;5071737;28;20306;-77
2024/01/30 07:02:00;;;;;;;1999.90;999.90;;;10.60;99.90;;;;;;5070747;28;20107;-77
2024/01/30 07:04:26;;;;;;;1999.90;999.90;;;10.60;99.90;;;;;;5071114;28;20103;-78
2024/01/30 07:06:53;;;;;;;1999.90;999.90;;;10.70;99.90;;;;;;5072090;28;20041;-78
2024/01/30 07:09:18;;;;;;;1999.90;999.90;;;10.70;99.90;;;;;;5072524;28;20047;-78
2024/01/30 07:11:44;;;;;;;1999.90;999.90;;;10.70;99.90;;;;;;5071948;28;20495;-69
2024/01/30 07:14:10;;;;;;;1999.90;999.90;;;10.70;99.90;;;;;;5054285;28;20116;-77
2024/01/30 07:16:36;;;;;;;1999.90;999.90;;;10.70;99.90;;;;;;5072645;28;20029;-70
2024/01/30 07:19:02;;;;;;;1999.90;999.90;;;10.80;99.90;;;;;;5077051;28;20502;-78
2024/01/30 07:21:28;;;;;;;1999.90;999.90;;;10.80;99.90;;;;;;5083123;28;20029;-71
2024/01/30 07:23:57;;;;;;;1999.90;999.90;;;10.80;99.90;;;;;;5072429;28;20494;-78
2024/01/30 07:26:22;;;;;;;1999.90;999.90;;;10.70;99.90;;;;;;5068785;28;20029;-77
2024/01/30 07:28:48;;;;;;;1999.90;999.90;;;10.70;99.90;;;;;;5071830;28;20040;-77
2024/01/30 07:31:14;;;;;;;1999.90;999.90;;;10.80;99.90;;;;;;5071694;28;20021;-68
2024/01/30 07:33:39;;;;;;;1999.90;999.90;;;10.80;99.90;;;;;;5068829;28;20079;-69
2024/01/30 07:36:05;;;;;;;1999.90;999.90;;;10.90;99.90;;;;;;5070461;28;20021;-71
2024/01/30 07:38:34;;;;;;;1999.90;999.90;;;10.90;99.90;;;;;;5070836;28;20024;-77
2024/01/30 07:41:00;;;;;;;1999.90;999.90;;;10.90;99.90;;;;;;5072994;28;20035;-69
2024/01/30 07:43:25;;;;;;;1999.90;999.90;;;10.90;99.90;;;;;;5067690;28;20029;-77
2024/01/30 07:45:51;;;;;;;1999.90;999.90;;;10.90;99.90;;;;;;5071004;28;20028;-69
2024/01/30 07:48:17;;;;;;;1999.90;999.90;;;10.90;99.90;;;;;;5070893;28;20020;-77
2024/01/30 07:50:42;;;;;;;1999.90;999.90;;;11.00;99.90;;;;;;5070164;28;20039;-69
2024/01/30 07:53:08;;;;;;;1999.90;999.90;;;11.10;99.90;;;;;;5070396;28;20036;-69
2024/01/30 07:55:34;;;;;;;1999.90;999.90;;;11.10;99.90;;;;;;5066959;28;20388;-76
2024/01/30 07:58:00;;;;;;;1999.90;999.90;;;11.20;99.90;;;;;;5068100;28;20048;-78
2024/01/30 08:00:26;;;;;;;1999.90;999.90;;;11.20;99.90;;;;;;5074234;28;20495;-78
2024/01/30 08:02:54;;;;;;;1999.90;999.90;;;11.30;99.90;;;;;;5077401;28;20043;-77
2024/01/30 08:05:22;;;;;;;1999.90;999.90;;;11.40;99.90;;;;;;5072423;28;20044;-68
2024/01/30 08:07:48;;;;;;;1999.90;999.90;;;11.40;99.90;;;;;;5079700;28;20058;-78
2024/01/30 08:10:14;;;;;;;1999.90;999.90;;;11.40;99.90;;;;;;5077084;28;20027;-77
2024/01/30 08:12:40;;;;;;;1999.90;999.90;;;11.40;99.90;;;;;;5077235;28;20029;-69
2024/01/30 08:15:06;;;;;;;1999.90;999.90;;;11.50;99.90;;;;;;5084627;28;20027;-69
2024/01/30 08:17:31;;;;;;;1999.90;999.90;;;11.60;99.90;;;;;;5081884;28;20387;-69
2024/01/30 08:19:57;;;;;;;1999.90;999.90;;;11.60;99.90;;;;;;5073253;28;20479;-77
2024/01/30 08:22:23;;;;;;;1999.90;999.90;;;11.70;99.90;;;;;;5073985;28;20024;-77
2024/01/30 08:24:49;;;;;;;1999.90;999.90;;;11.80;99.90;;;;;;5077571;28;20032;-77
2024/01/30 08:27:14;;;;;;;1999.90;999.90;;;11.90;99.90;;;;;;5086066;28;20083;-77
2024/01/30 08:29:40;;;;;;;1999.90;999.90;;;12.00;99.90;;;;;;5076095;28;20106;-78
2024/01/30 08:32:06;;;;;;;1999.90;999.90;;;12.00;99.90;;;;;;5090509;28;20441;-74
2024/01/30 08:34:32;;;;;;;1999.90;999.90;;;12.10;99.90;;;;;;5072202;28;20120;-75
2024/01/30 08:36:58;;;;;;;1999.90;999.90;;;12.20;99.90;;;;;;5072016;28;20515;-73
2024/01/30 08:39:24;;;;;;;1999.90;999.90;;;12.50;99.90;;;;;;5072563;28;20085;-75
2024/01/30 08:41:49;;;;;;;1999.90;999.90;;;13.10;99.90;;;;;;5092602;28;20039;-68
2024/01/30 08:44:15;;;;;;;1999.90;999.90;;;13.00;99.90;;;;;;5085665;28;20024;-75
2024/01/30 08:46:41;;;;;;;1999.90;999.90;;;13.60;99.90;;;;;;5073155;28;20467;-75
2024/01/30 08:49:06;;;;;;;1999.90;999.90;;;13.80;99.90;;;;;;5073955;28;20478;-74
2024/01/30 08:51:32;;;;;;;1999.90;999.90;;;13.30;99.90;;;;;;5073028;28;20035;-74
2024/01/30 08:53:57;;;;;;;1999.90;999.90;;;12.70;99.90;;;;;;5073325;28;20032;-74
2024/01/30 08:56:23;;;;;;;1999.90;999.90;;;12.30;99.90;;;;;;5073326;28;20060;-74
2024/01/30 08:58:49;;;;;;;1999.90;999.90;;;12.10;99.90;;;;;;5073410;28;20033;-74
2024/01/30 09:01:15;;;;;;;1999.90;999.90;;;12.00;99.90;;;;;;5072305;28;20044;-73
2024/01/30 09:03:42;;;;;;;1999.90;999.90;;;12.00;99.90;;;;;;5073655;28;20066;-68
2024/01/30 09:06:11;;;;;;;1999.90;999.90;;;12.00;99.90;;;;;;5072800;28;20063;-69
2024/01/30 09:08:37;;;;;;;1999.90;999.90;;;12.00;99.90;;;;;;5085929;28;20394;-68
2024/01/30 09:11:09;;;;;;;1999.90;999.90;;;12.00;99.90;;;;;;5093424;28;20047;-72
2024/01/30 09:13:35;;;;;;;1999.90;999.90;;;12.00;99.90;;;;;;5085020;28;20419;-73
2024/01/30 09:16:01;;;;;;;1999.90;999.90;;;12.00;99.90;;;;;;5072849;28;20036;-73
2024/01/30 09:18:26;;;;;;;1999.90;999.90;;;12.00;99.90;;;;;;5071733;28;20035;-72
2024/01/30 09:20:52;;;;;;;1999.90;999.90;;;12.00;99.90;;;;;;5072780;28;20048;-68
2024/01/30 09:23:19;;;;;;;1999.90;999.90;;;11.90;99.90;;;;;;5072535;28;20439;-68
2024/01/30 09:25:45;;;;;;;1999.90;999.90;;;11.80;99.90;;;;;;5072751;28;20032;-74
2024/01/30 09:28:11;;;;;;;1999.90;999.90;;;11.90;99.90;;;;;;5072925;28;20039;-68
2024/01/30 09:30:36;;;;;;;1999.90;999.90;;;11.90;99.90;;;;;;5071886;28;20028;-74
2024/01/30 09:33:02;;;;;;;1999.90;999.90;;;11.90;99.90;;;;;;5071913;28;20021;-74
2024/01/30 09:35:29;;;;;;;1999.90;999.90;;;11.90;99.90;;;;;;5068377;28;20040;-68
2024/01/30 09:37:54;;;;;;;1999.90;999.90;;;11.90;99.90;;;;;;5071613;28;20777;-74
2024/01/30 09:40:20;;;;;;;1999.90;999.90;;;11.80;99.90;;;;;;5072471;28;20035;-67
2024/01/30 09:42:50;;;;;;;1999.90;999.90;;;11.90;99.90;;;;;;5072126;28;20032;-72
2024/01/30 09:45:18;;;;;;;1999.90;999.90;;;11.90;99.90;;;;;;5072349;28;20032;-68
2024/01/30 09:47:45;;;;;;;1999.90;999.90;;;11.80;99.90;;;;;;5072396;28;20025;-75
2024/01/30 09:50:12;;;;;;;1999.90;999.90;;;11.90;99.90;;;;;;5072215;28;20070;-70
2024/01/30 09:52:38;;;;;;;1999.90;999.90;;;11.90;99.90;;;;;;5071172;28;20104;-75
2024/01/30 09:55:05;;;;;;;1999.90;999.90;;;12.00;99.90;;;;;;5071865;28;20403;-74
2024/01/30 09:57:31;;;;;;;1999.90;999.90;;;12.20;99.90;;;;;;5072155;28;20024;-68
2024/01/30 09:59:57;;;;;;;1999.90;999.90;;;12.40;99.90;;;;;;5071474;28;20028;-74
2024/01/30 10:02:23;;;;;;;1999.90;999.90;;;12.70;99.90;;;;;;5071294;28;20020;-69
2024/01/30 10:04:52;;;;;;;1999.90;999.90;;;12.60;99.90;;;;;;5071783;28;20399;-68
2024/01/30 10:07:18;;;;;;;1999.90;999.90;;;12.80;99.90;;;;;;5074817;28;20033;-68
2024/01/30 10:09:45;;;;;;;1999.90;999.90;;;12.80;99.90;;;;;;5071759;28;20511;-75
2024/01/30 10:12:10;;;;;;;1999.90;999.90;;;12.70;99.90;;;;;;5072059;28;20100;-75
2024/01/30 10:14:39;;;;;;;1999.90;999.90;;;12.90;99.90;;;;;;5087619;28;20107;-74
2024/01/30 10:17:07;;;;;;;1999.90;999.90;;;12.90;99.90;;;;;;5091217;28;20538;-74
2024/01/30 10:19:33;;;;;;;1999.90;999.90;;;12.80;99.90;;;;;;5086924;28;20471;-75
2024/01/30 10:22:01;;;;;;;1999.90;999.90;;;12.80;99.90;;;;;;5071437;28;20122;-75
2024/01/30 10:24:27;;;;;;;1999.90;999.90;;;12.60;99.90;;;;;;5067262;28;20028;-70
2024/01/30 10:26:53;;;;;;;1999.90;999.90;;;12.60;99.90;;;;;;5071240;28;20079;-74
2024/01/30 10:29:19;;;;;;;1999.90;999.90;;;12.70;99.90;;;;;;5071010;28;20059;-68
2024/01/30 10:31:45;;;;;;;1999.90;999.90;;;12.80;99.90;;;;;;5070976;28;20081;-74
2024/01/30 10:34:10;;;;;;;1999.90;999.90;;;12.90;99.90;;;;;;5071423;28;20035;-74
2024/01/30 10:36:50;;;;;;;1999.90;999.90;;;12.80;99.90;;;;;;5071089;28;20070;-74
2024/01/30 10:39:17;;;;;;;1999.90;999.90;;;13.00;99.90;;;;;;5065120;28;20449;-68
2024/01/30 10:41:48;;;;;;;1999.90;999.90;;;13.00;99.90;;;;;;5069030;28;20031;-68
2024/01/30 10:44:19;;;;;;;1999.90;999.90;;;13.00;99.90;;;;;;5068445;28;20016;-75
2024/01/30 10:46:54;;;;;;;1999.90;999.90;;;13.00;99.90;;;;;;5070933;28;20063;-69
2024/01/30 10:49:22;;;;;;;1999.90;999.90;;;13.10;99.90;;;;;;5084599;28;20028;-74
2024/01/30 10:51:48;;;;;;;1999.90;999.90;;;13.10;99.90;;;;;;5057592;28;20360;-68
2024/01/30 10:54:17;;;;;;;1999.90;999.90;;;13.10;99.90;;;;;;5070932;28;20440;-68
2024/01/30 10:56:43;;;;;;;1999.90;999.90;;;13.20;99.90;;;;;;5070197;28;20041;-68
2024/01/30 10:59:09;;;;;;;1999.90;999.90;;;13.20;99.90;;;;;;5070839;28;20491;-68
2024/01/30 11:01:35;;;;;;;1999.90;999.90;;;13.20;99.90;;;;;;5070799;28;20067;-75
2024/01/30 11:04:01;;;;;;;1999.90;999.90;;;12.90;99.90;;;;;;5072371;28;20028;-75
2024/01/30 11:06:27;;;;;;;1999.90;999.90;;;12.90;99.90;;;;;;5072196;28;20392;-69
2024/01/30 11:09:09;;;;;;;1999.90;999.90;;;12.90;99.90;;;;;;5071989;28;20020;-68
2024/01/30 11:11:51;;;;;;;1999.90;999.90;;;13.00;99.90;;;;;;5072626;28;20025;-75
2024/01/30 11:14:22;;;;;;;1999.90;999.90;;;13.20;99.90;;;;;;5071577;28;20094;-75
2024/01/30 11:16:49;;;;;;;1999.90;999.90;;;13.30;99.90;;;;;;5072303;28;20066;-74
2024/01/30 11:19:15;;;;;;;1999.90;999.90;;;13.20;99.90;;;;;;5072107;28;20399;-68
2024/01/30 11:21:43;;;;;;;1999.90;999.90;;;13.30;99.90;;;;;;5072158;28;20029;-75
2024/01/30 11:24:09;;;;;;;1999.90;999.90;;;13.30;99.90;;;;;;5072479;28;20085;-74
2024/01/30 11:26:35;;;;;;;1999.90;999.90;;;13.30;99.90;;;;;;5072014;28;20422;-69
2024/01/30 11:29:07;;;;;;;1999.90;999.90;;;13.20;99.90;;;;;;5079351;28;20039;-74
2024/01/30 11:31:32;;;;;;;1999.90;999.90;;;13.20;99.90;;;;;;5092276;28;20020;-68
2024/01/30 11:33:59;;;;;;;1999.90;999.90;;;13.20;99.90;;;;;;5072872;28;20039;-75
2024/01/30 11:36:29;;;;;;;1999.90;999.90;;;13.20;99.90;;;;;;5046154;28;20436;-74
2024/01/30 11:38:54;;;;;;;1999.90;999.90;;;13.20;99.90;;;;;;5074738;28;20454;-75
2024/01/30 11:41:21;;;;;;;1999.90;999.90;;;13.40;99.90;;;;;;5081712;28;20052;-75
2024/01/30 11:43:52;;;;;;;1999.90;999.90;;;13.40;99.90;;;;;;5077421;28;20036;-68
2024/01/30 11:46:18;;;;;;;1999.90;999.90;;;13.30;99.90;;;;;;5092088;28;20017;-68
2024/01/30 11:48:44;;;;;;;1999.90;999.90;;;13.20;99.90;;;;;;5091132;28;20055;-75
2024/01/30 11:51:09;;;;;;;1999.90;999.90;;;13.20;99.90;;;;;;5091895;28;20024;-74
2024/01/30 11:53:35;;;;;;;1999.90;999.90;;;13.30;99.90;;;;;;5091170;28;20122;-68